createdAt,value
2018-09-19T00:01:46.623Z,6.40
2018-09-19T00:04:14.103Z,6.20
2018-09-19T00:06:41.550Z,5.50
2018-09-19T00:09:09.800Z,5.40
2018-09-19T00:11:37.982Z,5.77
2018-09-19T00:14:05.344Z,6.30
2018-09-19T00:16:32.706Z,5.57
2018-09-19T00:19:00.289Z,5.77
2018-09-19T00:21:27.808Z,5.60
2018-09-19T00:23:55.493Z,5.60
2018-09-19T00:26:23.463Z,5.70
2018-09-19T00:28:50.899Z,6.07
2018-09-19T00:31:18.569Z,5.73
2018-09-19T00:33:46.691Z,5.47
2018-09-19T00:36:14.132Z,5.83
2018-09-19T00:38:41.553Z,5.90
2018-09-19T00:41:08.965Z,5.83
2018-09-19T00:43:36.367Z,6.10
2018-09-19T00:46:04.051Z,6.80
2018-09-19T00:48:31.407Z,6.17
2018-09-19T00:50:58.947Z,5.80
2018-09-19T00:53:26.499Z,6.43
2018-09-19T00:55:54.287Z,5.30
2018-09-19T00:58:21.698Z,6.50
2018-09-19T01:00:49.464Z,6.40
2018-09-19T01:03:16.839Z,6.53
2018-09-19T01:05:44.875Z,6.10
2018-09-19T01:08:12.260Z,5.60
2018-09-19T01:10:39.610Z,6.57
2018-09-19T01:13:06.974Z,5.90
2018-09-19T01:15:34.367Z,5.63
2018-09-19T01:18:01.774Z,6.07
2018-09-19T01:20:29.245Z,5.87
2018-09-19T01:22:57.455Z,5.90
2018-09-19T01:25:24.947Z,6.13
2018-09-19T01:27:52.363Z,6.70
2018-09-19T01:30:20.089Z,5.40
2018-09-19T01:32:47.756Z,6.43
2018-09-19T01:35:15.325Z,6.10
2018-09-19T01:37:42.808Z,5.77
2018-09-19T01:40:10.262Z,6.60
2018-09-19T01:42:37.732Z,6.23
2018-09-19T01:45:05.236Z,7.50
2018-09-19T01:47:32.687Z,7.40
2018-09-19T01:50:00.443Z,7.70
2018-09-19T01:52:27.806Z,7.13
2018-09-19T01:54:55.252Z,6.97
2018-09-19T01:57:22.615Z,7.30
2018-09-19T01:59:49.986Z,7.00
2018-09-19T02:02:17.332Z,6.23
2018-09-19T02:04:44.681Z,7.07
2018-09-19T02:07:12.234Z,6.93
2018-09-19T02:09:39.564Z,7.20
2018-09-19T02:12:06.973Z,6.30
2018-09-19T02:14:34.310Z,6.73
2018-09-19T02:17:01.644Z,6.60
2018-09-19T02:19:29.162Z,6.20
2018-09-19T02:21:56.571Z,7.80
2018-09-19T02:24:24.040Z,6.63
2018-09-19T02:26:51.403Z,6.93
2018-09-19T02:29:18.882Z,6.80
2018-09-19T02:31:46.508Z,6.73
2018-09-19T02:34:13.834Z,7.97
2018-09-19T02:36:41.235Z,6.30
2018-09-19T02:39:10.396Z,6.83
2018-09-19T02:41:37.871Z,6.47
2018-09-19T02:44:05.254Z,7.37
2018-09-19T02:46:32.586Z,7.40
2018-09-19T02:48:59.929Z,6.97
2018-09-19T02:51:27.295Z,6.73
2018-09-19T02:53:54.844Z,6.47
2018-09-19T02:56:22.187Z,7.57
2018-09-19T02:58:49.567Z,6.90
2018-09-19T03:01:16.878Z,6.63
2018-09-19T03:03:45.231Z,7.10
2018-09-19T03:06:13.576Z,6.43
2018-09-19T03:08:40.894Z,7.40
2018-09-19T03:11:08.220Z,7.23
2018-09-19T03:13:35.668Z,6.30
2018-09-19T03:16:02.946Z,6.43
2018-09-19T03:18:30.269Z,6.97
2018-09-19T03:20:57.599Z,6.90
2018-09-19T03:23:24.981Z,7.60
2018-09-19T03:25:52.984Z,7.13
2018-09-19T03:28:20.337Z,6.97
2018-09-19T03:30:47.731Z,6.80
2018-09-19T03:33:15.053Z,6.50
2018-09-19T03:35:42.344Z,7.20
2018-09-19T03:38:09.659Z,6.97
2018-09-19T03:40:37.003Z,6.90
2018-09-19T03:43:04.811Z,6.50
2018-09-19T03:45:32.181Z,6.30
2018-09-19T03:47:59.490Z,7.10
2018-09-19T03:50:26.810Z,6.90
2018-09-19T03:52:54.777Z,6.40
2018-09-19T03:55:22.148Z,6.63
2018-09-19T03:57:49.944Z,6.53
2018-09-19T04:00:17.321Z,6.53
2018-09-19T04:02:44.642Z,6.97
2018-09-19T04:05:12.495Z,6.93
2018-09-19T04:07:39.851Z,6.00
2018-09-19T04:10:07.819Z,6.30
2018-09-19T04:12:35.108Z,6.63
2018-09-19T04:15:02.506Z,6.50
2018-09-19T04:17:30.343Z,6.60
2018-09-19T04:19:57.910Z,7.10
2018-09-19T04:22:25.528Z,7.10
2018-09-19T04:24:52.899Z,7.17
2018-09-19T04:27:20.555Z,7.30
2018-09-19T04:29:48.049Z,6.47
2018-09-19T04:32:15.387Z,6.47
2018-09-19T04:34:42.810Z,6.30
2018-09-19T04:37:10.487Z,7.00
2018-09-19T04:39:37.913Z,6.83
2018-09-19T04:42:06.515Z,7.30
2018-09-19T04:44:33.915Z,7.90
2018-09-19T04:47:01.341Z,6.73
2018-09-19T04:49:28.889Z,6.93
2018-09-19T04:51:56.440Z,6.30
2018-09-19T04:54:23.886Z,7.57
2018-09-19T04:56:51.253Z,6.90
2018-09-19T04:59:18.757Z,6.03
2018-09-19T05:01:46.112Z,6.50
2018-09-19T05:04:13.745Z,7.13
2018-09-19T05:06:41.627Z,6.77
2018-09-19T05:09:09.866Z,6.50
2018-09-19T05:11:37.221Z,6.33
2018-09-19T05:14:04.672Z,7.10
2018-09-19T05:16:32.348Z,7.40
2018-09-19T05:19:00.065Z,7.40
2018-09-19T05:21:27.482Z,6.43
2018-09-19T05:23:54.842Z,7.30
2018-09-19T05:26:22.687Z,7.43
2018-09-19T05:28:50.144Z,7.10
2018-09-19T05:31:17.508Z,7.70
2018-09-19T05:33:44.904Z,6.73
2018-09-19T05:36:12.422Z,6.43
2018-09-19T05:38:40.078Z,7.00
2018-09-19T05:41:07.614Z,7.50
2018-09-19T05:43:34.930Z,7.50
2018-09-19T05:46:02.240Z,6.87
2018-09-19T05:48:30.040Z,7.40
2018-09-19T05:50:57.399Z,7.47
2018-09-19T05:53:24.753Z,6.67
2018-09-19T05:55:52.027Z,7.40
2018-09-19T05:58:19.481Z,7.30
2018-09-19T06:00:46.870Z,7.50
2018-09-19T06:03:14.267Z,7.90
2018-09-19T06:05:41.633Z,7.30
2018-09-19T06:08:09.028Z,6.73
2018-09-19T06:10:36.312Z,7.40
2018-09-19T06:13:03.765Z,8.37
2018-09-19T06:15:31.662Z,7.67
2018-09-19T06:17:59.797Z,7.23
2018-09-19T06:20:27.192Z,7.07
2018-09-19T06:22:54.611Z,8.10
2018-09-19T06:25:22.036Z,7.00
2018-09-19T06:27:49.401Z,7.70
2018-09-19T06:30:16.831Z,8.00
2018-09-19T06:32:44.297Z,7.13
2018-09-19T06:35:11.761Z,7.10
2018-09-19T06:37:39.145Z,6.43
2018-09-19T06:40:07.406Z,7.60
2018-09-19T06:42:34.827Z,7.00
2018-09-19T06:45:02.880Z,5.77
2018-09-19T06:47:30.260Z,5.93
2018-09-19T06:49:57.599Z,5.87
2018-09-19T06:52:25.075Z,5.67
2018-09-19T06:54:52.421Z,6.43
2018-09-19T06:57:19.897Z,5.93
2018-09-19T06:59:47.503Z,6.83
2018-09-19T07:02:14.909Z,6.43
2018-09-19T07:04:42.246Z,6.50
2018-09-19T07:07:09.627Z,6.50
2018-09-19T07:09:37.583Z,6.10
2018-09-19T07:12:05.029Z,6.10
2018-09-19T07:14:32.596Z,6.00
2018-09-19T07:17:00.062Z,5.23
2018-09-19T07:19:27.455Z,5.37
2018-09-19T07:21:55.048Z,5.47
2018-09-19T07:24:22.646Z,5.60
2018-09-19T07:26:49.979Z,5.93
2018-09-19T07:29:17.713Z,6.00
2018-09-19T07:31:45.564Z,5.30
2018-09-19T07:34:13.029Z,5.80
2018-09-19T07:36:40.405Z,5.10
2018-09-19T07:39:08.589Z,5.53
2018-09-19T07:41:36.239Z,5.77
2018-09-19T07:44:04.838Z,4.70
2018-09-19T07:46:32.240Z,4.90
2018-09-19T07:48:59.648Z,4.90
2018-09-19T07:51:27.096Z,4.60
2018-09-19T07:53:54.536Z,5.33
2018-09-19T07:56:22.554Z,5.23
2018-09-19T07:58:49.981Z,5.40
2018-09-19T08:01:17.907Z,5.00
2018-09-19T08:03:45.282Z,6.50
2018-09-19T08:06:12.962Z,4.70
2018-09-19T08:08:40.390Z,5.23
2018-09-19T08:11:07.841Z,4.60
2018-09-19T08:13:35.196Z,3.90
2018-09-19T08:16:02.663Z,4.63
2018-09-19T08:18:30.013Z,4.40
2018-09-19T08:20:57.361Z,4.57
2018-09-19T08:23:25.433Z,5.20
2018-09-19T08:25:53.326Z,5.10
2018-09-19T08:28:20.742Z,5.63
2018-09-19T08:30:48.113Z,5.17
2018-09-19T08:33:15.528Z,4.60
2018-09-19T08:35:42.961Z,4.47
2018-09-19T08:38:10.383Z,4.60
2018-09-19T08:40:37.771Z,4.60
2018-09-19T08:43:05.231Z,4.53
2018-09-19T08:45:32.576Z,5.37
2018-09-19T08:48:00.930Z,5.10
2018-09-19T08:50:29.272Z,4.57
2018-09-19T08:52:56.711Z,3.87
2018-09-19T08:55:24.147Z,4.83
2018-09-19T08:57:51.614Z,5.20
2018-09-19T09:00:19.223Z,5.40
2018-09-19T09:02:46.613Z,4.80
2018-09-19T09:05:14.033Z,4.93
2018-09-19T09:07:41.524Z,4.93
2018-09-19T09:10:09.204Z,4.67
2018-09-19T09:12:36.703Z,5.50
2018-09-19T09:15:04.099Z,5.30
2018-09-19T09:17:31.500Z,4.93
2018-09-19T09:19:59.256Z,5.27
2018-09-19T09:22:26.598Z,5.00
2018-09-19T09:24:53.908Z,5.10
2018-09-19T09:27:21.297Z,4.13
2018-09-19T09:29:48.655Z,5.10
2018-09-19T09:34:43.600Z,4.53
2018-09-19T09:37:11.193Z,4.37
2018-09-19T09:39:38.785Z,4.07
2018-09-19T09:42:06.131Z,4.70
2018-09-19T09:44:33.539Z,4.77
2018-09-19T09:47:01.854Z,4.43
2018-09-19T09:49:29.233Z,5.17
2018-09-19T09:51:56.563Z,4.33
2018-09-19T09:54:23.940Z,4.80
2018-09-19T09:56:51.423Z,5.00
2018-09-19T09:59:18.798Z,3.63
2018-09-19T10:01:46.110Z,4.90
2018-09-19T10:04:13.572Z,4.03
2018-09-19T10:06:41.060Z,4.37
2018-09-19T10:09:08.935Z,4.33
2018-09-19T10:11:36.347Z,3.80
2018-09-19T10:14:03.888Z,4.13
2018-09-19T10:16:31.392Z,4.10
2018-09-19T10:18:58.778Z,4.27
2018-09-19T10:21:26.150Z,4.00
2018-09-19T10:23:53.638Z,3.73
2018-09-19T10:26:20.927Z,3.40
2018-09-19T10:28:48.446Z,4.00
2018-09-19T10:31:16.388Z,3.77
2018-09-19T10:33:43.778Z,3.70
2018-09-19T10:36:11.152Z,4.13
2018-09-19T10:38:38.714Z,3.80
2018-09-19T10:41:06.148Z,3.87
2018-09-19T10:43:33.588Z,3.80
2018-09-19T10:46:00.978Z,3.30
2018-09-19T10:48:28.395Z,3.40
2018-09-19T10:50:55.882Z,2.93
2018-09-19T10:53:23.712Z,3.10
2018-09-19T10:55:51.197Z,3.77
2018-09-19T10:58:18.571Z,4.00
2018-09-19T11:00:46.557Z,4.10
2018-09-19T11:03:14.006Z,4.07
2018-09-19T11:05:41.834Z,4.30
2018-09-19T11:08:09.202Z,4.30
2018-09-19T11:10:36.542Z,4.83
2018-09-19T11:13:04.009Z,4.53
2018-09-19T11:15:31.486Z,4.00
2018-09-19T11:17:58.887Z,4.33
2018-09-19T11:20:26.298Z,4.03
2018-09-19T11:22:53.760Z,4.53
2018-09-19T11:25:21.173Z,3.60
2018-09-19T11:27:48.529Z,3.70
2018-09-19T11:30:17.402Z,3.70
2018-09-19T11:32:44.961Z,4.00
2018-09-19T11:35:12.443Z,4.73
2018-09-19T11:37:40.050Z,4.20
2018-09-19T11:40:07.608Z,3.80
2018-09-19T11:42:35.056Z,4.70
2018-09-19T11:45:03.079Z,4.30
2018-09-19T11:47:30.564Z,4.20
2018-09-19T11:49:57.983Z,4.30
2018-09-19T11:52:25.703Z,4.53
2018-09-19T11:54:53.368Z,4.30
2018-09-19T11:57:20.754Z,4.80
2018-09-19T11:59:48.140Z,4.90
2018-09-19T12:02:15.623Z,4.57
2018-09-19T12:04:43.195Z,4.60
2018-09-19T12:07:10.800Z,4.60
2018-09-19T12:09:38.186Z,4.33
2018-09-19T12:12:05.685Z,4.60
2018-09-19T12:14:33.560Z,4.57
2018-09-19T12:17:00.929Z,4.10
2018-09-19T12:19:28.545Z,4.50
2018-09-19T12:21:56.162Z,4.03
2018-09-19T12:24:23.571Z,4.47
2018-09-19T12:26:51.681Z,4.47
2018-09-19T12:29:19.077Z,4.77
2018-09-19T12:31:46.771Z,4.77
2018-09-19T12:34:14.173Z,4.07
2018-09-19T12:36:41.714Z,4.77
2018-09-19T12:39:10.629Z,4.60
2018-09-19T12:41:38.233Z,4.40
2018-09-19T12:44:05.898Z,4.50
2018-09-19T12:46:33.436Z,4.37
2018-09-19T12:49:01.381Z,4.40
2018-09-19T12:51:29.045Z,4.13
2018-09-19T12:53:56.555Z,4.00
2018-09-19T12:56:24.185Z,3.77
2018-09-19T12:58:51.630Z,4.17
2018-09-19T13:01:18.931Z,4.70
2018-09-19T13:03:46.344Z,3.90
2018-09-19T13:06:13.667Z,4.00
2018-09-19T13:08:41.171Z,3.80
2018-09-19T13:11:08.485Z,4.63
2018-09-19T13:13:35.982Z,3.97
2018-09-19T13:16:04.129Z,4.20
2018-09-19T13:18:31.798Z,3.63
2018-09-19T13:20:59.287Z,4.60
2018-09-19T13:23:26.676Z,4.30
2018-09-19T13:25:54.169Z,4.00
2018-09-19T13:28:21.672Z,3.80
2018-09-19T13:30:49.143Z,4.00
2018-09-19T13:33:16.551Z,4.17
2018-09-19T13:35:44.076Z,3.60
2018-09-19T13:38:11.620Z,4.60
2018-09-19T13:40:39.227Z,4.00
2018-09-19T13:43:06.760Z,4.13
2018-09-19T13:45:34.178Z,4.40
2018-09-19T13:48:03.630Z,3.87
2018-09-19T13:50:36.173Z,3.60
2018-09-19T13:53:04.404Z,3.60
2018-09-19T13:55:31.890Z,4.00
2018-09-19T13:57:59.317Z,3.70
2018-09-19T14:00:26.848Z,3.40
2018-09-19T14:02:54.469Z,3.60
2018-09-19T14:05:21.914Z,3.60
2018-09-19T14:07:49.803Z,4.00
2018-09-19T14:10:17.998Z,3.90
2018-09-19T14:12:46.424Z,3.77
2018-09-19T14:15:13.829Z,4.10
2018-09-19T14:17:41.490Z,4.30
2018-09-19T14:20:08.955Z,3.53
2018-09-19T14:22:36.445Z,3.60
2018-09-19T14:25:03.957Z,4.20
2018-09-19T14:27:31.443Z,4.27
2018-09-19T14:29:59.095Z,3.83
2018-09-19T14:32:26.481Z,3.97
2018-09-19T14:34:53.995Z,3.60
2018-09-19T14:37:22.929Z,3.40
2018-09-19T14:39:50.590Z,3.70
2018-09-19T14:42:18.103Z,4.33
2018-09-19T14:44:45.578Z,3.77
2018-09-19T14:47:12.976Z,3.57
2018-09-19T14:49:41.447Z,4.23
2018-09-19T14:52:08.978Z,4.07
2018-09-19T14:54:36.874Z,3.77
2018-09-19T14:57:04.365Z,3.83
2018-09-19T14:59:31.984Z,4.33
2018-09-19T15:01:59.414Z,3.60
2018-09-19T15:04:27.306Z,3.60
2018-09-19T15:06:55.116Z,4.10
2018-09-19T15:09:22.608Z,3.87
2018-09-19T15:11:50.152Z,3.93
2018-09-19T15:14:17.678Z,4.10
2018-09-19T15:16:45.138Z,3.80
2018-09-19T15:19:12.961Z,3.67
2018-09-19T15:21:40.425Z,4.20
2018-09-19T15:24:07.896Z,3.97
2018-09-19T15:26:35.440Z,3.63
2018-09-19T15:29:02.804Z,4.40
2018-09-19T15:31:30.346Z,4.00
2018-09-19T15:33:58.353Z,3.73
2018-09-19T15:36:25.862Z,3.80
2018-09-19T15:38:54.269Z,3.37
2018-09-19T15:41:21.691Z,3.90
2018-09-19T15:43:50.937Z,3.90
2018-09-19T15:46:18.368Z,4.17
2018-09-19T15:48:45.896Z,4.40
2018-09-19T15:51:13.329Z,3.37
2018-09-19T15:53:40.711Z,4.23
2018-09-19T15:56:08.400Z,4.00
2018-09-19T15:58:36.164Z,4.17
2018-09-19T16:01:04.291Z,3.83
2018-09-19T16:03:31.765Z,3.70
2018-09-19T16:05:59.795Z,4.37
2018-09-19T16:08:27.529Z,3.60
2018-09-19T16:10:55.010Z,3.50
2018-09-19T16:13:22.371Z,4.47
2018-09-19T16:15:50.010Z,4.07
2018-09-19T16:18:17.594Z,3.60
2018-09-19T16:20:45.129Z,4.30
2018-09-19T16:23:12.508Z,4.20
2018-09-19T16:25:39.841Z,6.07
2018-09-19T16:28:07.378Z,4.00
2018-09-19T16:30:34.813Z,4.87
2018-09-19T16:33:02.328Z,4.60
2018-09-19T16:35:31.320Z,5.10
2018-09-19T16:37:58.804Z,4.13
2018-09-19T16:40:26.154Z,5.27
2018-09-19T16:42:53.544Z,5.50
2018-09-19T16:45:20.908Z,4.40
2018-09-19T16:47:48.245Z,4.70
2018-09-19T16:50:15.959Z,4.30
2018-09-19T16:52:43.602Z,4.40
2018-09-19T16:55:10.975Z,4.90
2018-09-19T16:57:38.385Z,5.20
2018-09-19T17:00:07.220Z,5.60
2018-09-19T17:02:35.597Z,5.40
2018-09-19T17:05:03.046Z,4.70
2018-09-19T17:07:30.465Z,4.93
2018-09-19T17:09:57.909Z,4.77
2018-09-19T17:12:26.066Z,5.37
2018-09-19T17:14:53.621Z,5.00
2018-09-19T17:17:21.337Z,4.50
2018-09-19T17:19:48.766Z,5.20
2018-09-19T17:22:17.432Z,4.40
2018-09-19T17:24:45.376Z,5.03
2018-09-19T17:27:13.822Z,5.50
2018-09-19T17:29:42.716Z,5.27
2018-09-19T17:32:11.015Z,5.10
2018-09-19T17:34:38.719Z,5.27
2018-09-19T17:37:06.746Z,5.10
2018-09-19T17:39:34.301Z,5.50
2018-09-19T17:42:02.994Z,4.70
2018-09-19T17:44:30.702Z,5.70
2018-09-19T17:46:59.344Z,5.37
2018-09-19T17:49:28.284Z,5.73
2018-09-19T17:51:56.013Z,4.97
2018-09-19T17:54:23.456Z,5.27
2018-09-19T17:56:50.856Z,5.40
2018-09-19T17:59:18.708Z,5.10
2018-09-19T18:01:46.209Z,5.10
2018-09-19T18:04:13.748Z,5.63
2018-09-19T18:06:41.293Z,5.43
2018-09-19T18:09:09.197Z,5.83
2018-09-19T18:11:37.020Z,5.77
2018-09-19T18:14:04.769Z,6.47
2018-09-19T18:16:32.896Z,6.43
2018-09-19T18:19:04.237Z,6.07
2018-09-19T18:21:31.720Z,6.30
2018-09-19T18:23:59.588Z,5.57
2018-09-19T18:26:27.682Z,6.07
2018-09-19T18:28:55.382Z,6.03
2018-09-19T18:31:22.924Z,6.40
2018-09-19T18:33:50.452Z,5.87
2018-09-19T18:36:17.911Z,6.50
2018-09-19T18:38:45.351Z,6.00
2018-09-19T18:41:12.953Z,6.00
2018-09-19T18:43:41.271Z,5.80
2018-09-19T18:46:08.737Z,6.90
2018-09-19T18:48:36.185Z,6.63
2018-09-19T18:51:03.648Z,7.40
2018-09-19T18:53:31.027Z,7.10
2018-09-19T18:55:58.427Z,7.20
2018-09-19T18:58:26.863Z,7.20
2018-09-19T19:00:54.242Z,7.20
2018-09-19T19:03:21.849Z,7.23
2018-09-19T19:05:49.532Z,7.47
2018-09-19T19:08:16.960Z,7.03
2018-09-19T19:10:44.455Z,7.37
2018-09-19T19:13:12.503Z,7.90
2018-09-19T19:15:40.085Z,7.23
2018-09-19T19:18:07.517Z,6.50
2018-09-19T19:20:34.956Z,7.37
2018-09-19T19:23:02.383Z,7.03
2018-09-19T19:25:29.973Z,6.80
2018-09-19T19:27:57.376Z,7.87
2018-09-19T19:30:25.100Z,8.60
2018-09-19T19:32:53.072Z,8.00
2018-09-19T19:35:20.627Z,7.37
2018-09-19T19:37:48.386Z,7.60
2018-09-19T19:40:15.644Z,6.70
2018-09-19T19:42:43.183Z,7.17
2018-09-19T19:45:11.046Z,6.63
2018-09-19T19:47:38.480Z,6.53
2018-09-19T19:50:06.024Z,7.33
2018-09-19T19:52:33.545Z,7.30
2018-09-19T19:55:01.471Z,6.90
2018-09-19T19:57:29.252Z,6.83
2018-09-19T19:59:56.840Z,7.73
2018-09-19T20:02:24.420Z,6.97
2018-09-19T20:04:51.837Z,7.30
2018-09-19T20:07:19.309Z,7.57
2018-09-19T20:09:46.831Z,6.50
2018-09-19T20:12:14.558Z,7.17
2018-09-19T20:14:42.833Z,6.77
2018-09-19T20:17:10.350Z,7.10
2018-09-19T20:19:37.797Z,6.73
2018-09-19T20:22:08.477Z,7.40
2018-09-19T20:24:35.881Z,6.70
2018-09-19T20:27:03.331Z,7.20
2018-09-19T20:29:31.571Z,7.90
2018-09-19T20:31:59.996Z,7.20
2018-09-19T20:34:27.483Z,7.20
2018-09-19T20:36:54.890Z,7.10
2018-09-19T20:39:22.257Z,7.07
2018-09-19T20:41:50.215Z,7.90
2018-09-19T20:44:17.693Z,7.00
2018-09-19T20:46:45.093Z,7.40
2018-09-19T20:49:12.716Z,6.90
2018-09-19T20:51:41.512Z,8.33
2018-09-19T20:54:09.074Z,6.83
2018-09-19T20:56:36.440Z,7.97
2018-09-19T20:59:03.881Z,6.83
2018-09-19T21:01:31.402Z,6.70
2018-09-19T21:03:58.798Z,7.27
2018-09-19T21:06:26.910Z,7.07
2018-09-19T21:08:54.304Z,7.13
2018-09-19T21:11:21.714Z,7.70
2018-09-19T21:13:49.104Z,7.00
2018-09-19T21:16:16.639Z,7.47
2018-09-19T21:18:44.196Z,7.20
2018-09-19T21:21:11.736Z,7.10
2018-09-19T21:23:39.158Z,7.83
2018-09-19T21:26:06.549Z,7.67
2018-09-19T21:28:34.043Z,7.33
2018-09-19T21:31:01.513Z,6.80
2018-09-19T21:33:29.465Z,7.47
2018-09-19T21:35:56.901Z,7.33
2018-09-19T21:38:24.915Z,7.37
2018-09-19T21:40:52.729Z,7.83
2018-09-19T21:43:20.060Z,8.07
2018-09-19T21:45:47.515Z,7.37
2018-09-19T21:48:15.064Z,8.47
2018-09-19T21:50:42.549Z,7.70
2018-09-19T21:53:10.428Z,7.57
2018-09-19T21:55:38.785Z,7.37
2018-09-19T21:58:06.272Z,7.70
2018-09-19T22:00:33.842Z,6.83
2018-09-19T22:03:01.225Z,7.20
2018-09-19T22:05:28.622Z,7.23
2018-09-19T22:07:55.973Z,7.60
2018-09-19T22:10:23.389Z,7.20
2018-09-19T22:12:51.443Z,7.00
2018-09-19T22:15:18.812Z,7.70
2018-09-19T22:17:46.721Z,8.00
2018-09-19T22:20:14.374Z,7.83
2018-09-19T22:22:41.811Z,7.57
2018-09-19T22:25:09.170Z,7.97
2018-09-19T22:27:36.894Z,7.90
2018-09-19T22:30:04.707Z,6.90
2018-09-19T22:32:32.044Z,8.00
2018-09-19T22:34:59.414Z,8.00
2018-09-19T22:37:26.855Z,7.57
2018-09-19T22:39:54.250Z,8.47
2018-09-19T22:42:22.506Z,8.13
2018-09-19T22:44:49.880Z,7.40
2018-09-19T22:47:17.789Z,7.77
2018-09-19T22:49:45.115Z,7.97
2018-09-19T22:52:12.638Z,8.37
2018-09-19T22:54:40.022Z,8.87
2018-09-19T22:57:07.413Z,8.10
2018-09-19T22:59:35.501Z,7.53
2018-09-19T23:02:02.872Z,8.07
2018-09-19T23:04:30.413Z,7.40
2018-09-19T23:06:57.959Z,8.50
2018-09-19T23:09:25.277Z,8.10
2018-09-19T23:11:52.578Z,7.80
2018-09-19T23:14:19.939Z,8.10
2018-09-19T23:16:47.251Z,7.90
2018-09-19T23:19:14.606Z,8.30
2018-09-19T23:21:42.061Z,8.17
2018-09-19T23:24:09.393Z,7.10
2018-09-19T23:26:36.748Z,6.97
2018-09-19T23:29:04.119Z,7.33
2018-09-19T23:31:31.431Z,7.57
2018-09-19T23:33:59.175Z,7.67
2018-09-19T23:36:26.527Z,7.03
2018-09-19T23:38:53.861Z,7.93
2018-09-19T23:41:21.294Z,8.17
2018-09-19T23:43:48.594Z,7.27
2018-09-19T23:46:15.997Z,7.90
2018-09-19T23:48:43.434Z,7.70
2018-09-19T23:51:10.829Z,8.10
2018-09-19T23:53:38.315Z,8.27
2018-09-19T23:56:05.690Z,7.63
2018-09-19T23:58:33.116Z,8.30
